createdAt,value
2019-03-04T00:01:27.116Z,48.70
2019-03-04T00:03:57.035Z,48.70
2019-03-04T00:06:27.054Z,48.50
2019-03-04T00:08:57.451Z,48.00
2019-03-04T00:11:27.740Z,47.70
2019-03-04T00:13:57.416Z,47.70
2019-03-04T00:16:27.435Z,47.30
2019-03-04T00:18:57.808Z,47.20
2019-03-04T00:21:27.782Z,47.70
2019-03-04T00:23:58.227Z,48.00
2019-03-04T00:26:28.676Z,47.80
2019-03-04T00:28:59.107Z,47.90
2019-03-04T00:31:29.148Z,48.20
2019-03-04T00:33:58.803Z,48.30
2019-03-04T00:36:29.220Z,48.30
2019-03-04T00:38:59.214Z,49.80
2019-03-04T00:41:28.877Z,49.30
2019-03-04T00:43:59.307Z,49.50
2019-03-04T00:46:29.708Z,49.90
2019-03-04T00:49:00.028Z,49.90
2019-03-04T00:51:30.249Z,49.90
2019-03-04T00:53:59.848Z,49.00
2019-03-04T00:56:30.191Z,49.30
2019-03-04T00:59:01.016Z,50.40
2019-03-04T01:01:30.960Z,51.90
2019-03-04T01:04:00.980Z,52.60
2019-03-04T01:06:30.628Z,52.80
2019-03-04T01:09:00.940Z,54.00
2019-03-04T01:11:31.480Z,53.80
2019-03-04T01:14:01.503Z,54.00
2019-03-04T01:16:31.573Z,54.80
2019-03-04T01:19:01.536Z,55.50
2019-03-04T01:21:31.915Z,55.60
2019-03-04T01:24:01.975Z,55.80
2019-03-04T01:26:31.320Z,56.00
2019-03-04T01:29:01.059Z,56.60
2019-03-04T01:31:31.128Z,56.50
2019-03-04T01:34:01.097Z,56.20
2019-03-04T01:36:31.048Z,55.30
2019-03-04T01:39:01.473Z,54.70
2019-03-04T01:41:31.487Z,54.30
2019-03-04T01:44:01.819Z,54.00
2019-03-04T01:46:31.935Z,53.70
2019-03-04T01:49:01.532Z,53.80
2019-03-04T01:51:31.748Z,53.80
2019-03-04T01:54:02.210Z,54.00
2019-03-04T01:56:32.282Z,54.00
2019-03-04T01:59:01.953Z,53.80
2019-03-04T02:01:32.340Z,53.90
2019-03-04T02:04:02.140Z,53.70
2019-03-04T02:06:32.203Z,53.50
2019-03-04T02:09:03.356Z,53.60
2019-03-04T02:11:33.724Z,53.20
2019-03-04T02:14:03.843Z,53.20
2019-03-04T02:16:33.877Z,53.90
2019-03-04T02:19:03.553Z,53.50
2019-03-04T02:21:33.895Z,53.60
2019-03-04T02:24:26.349Z,53.20
2019-03-04T02:26:59.965Z,53.40
2019-03-04T02:29:29.793Z,53.60
2019-03-04T02:31:59.954Z,53.40
2019-03-04T02:34:30.657Z,53.60
2019-03-04T02:37:00.748Z,54.00
2019-03-04T02:39:30.776Z,53.40
2019-03-04T02:42:01.098Z,54.00
2019-03-04T02:44:31.506Z,54.10
2019-03-04T02:47:00.830Z,54.50
2019-03-04T02:49:31.658Z,54.40
2019-03-04T02:52:02.060Z,54.70
2019-03-04T02:54:32.204Z,55.20
2019-03-04T02:57:02.095Z,55.30
2019-03-04T02:59:32.557Z,56.10
2019-03-04T03:02:02.165Z,55.80
2019-03-04T03:04:32.850Z,55.90
2019-03-04T03:07:03.205Z,56.60
2019-03-04T03:09:33.554Z,56.50
2019-03-04T03:12:03.664Z,56.30
2019-03-04T03:14:33.729Z,56.50
2019-03-04T03:17:04.020Z,56.90
2019-03-04T03:19:34.136Z,56.40
2019-03-04T03:22:04.540Z,56.90
2019-03-04T03:24:33.864Z,57.30
2019-03-04T03:27:03.847Z,57.30
2019-03-04T03:29:34.164Z,57.50
2019-03-04T03:32:04.539Z,57.80
2019-03-04T03:34:34.549Z,58.30
2019-03-04T03:37:04.218Z,58.80
2019-03-04T03:39:34.671Z,57.90
2019-03-04T03:42:05.051Z,58.40
2019-03-04T03:44:35.391Z,58.60
2019-03-04T03:47:05.374Z,58.60
2019-03-04T03:49:35.039Z,58.20
2019-03-04T03:52:05.209Z,58.60
2019-03-04T03:54:35.594Z,58.50
2019-03-04T03:57:06.103Z,58.70
2019-03-04T03:59:36.743Z,57.90
2019-03-04T04:02:06.808Z,58.00
2019-03-04T04:04:36.865Z,58.00
2019-03-04T04:07:07.116Z,57.20
2019-03-04T04:09:37.150Z,56.80
2019-03-04T04:12:07.112Z,56.70
2019-03-04T04:14:37.139Z,56.50
2019-03-04T04:17:07.385Z,55.10
2019-03-04T04:19:37.038Z,54.70
2019-03-04T04:22:06.700Z,54.80
2019-03-04T04:24:37.409Z,54.60
2019-03-04T04:27:07.431Z,55.00
2019-03-04T04:29:38.829Z,54.90
2019-03-04T04:32:09.346Z,55.00
2019-03-04T04:34:40.129Z,54.80
2019-03-04T04:37:10.676Z,54.30
2019-03-04T04:39:41.061Z,54.80
2019-03-04T04:42:11.806Z,55.10
2019-03-04T04:45:13.534Z,55.20
2019-03-04T04:47:52.965Z,55.20
2019-03-04T04:51:46.117Z,54.60
2019-03-04T04:54:19.868Z,53.80
2019-03-04T04:56:49.139Z,53.50
2019-03-04T04:59:38.173Z,53.00
2019-03-04T05:02:08.618Z,53.80
2019-03-04T05:04:39.091Z,53.70
2019-03-04T05:07:09.430Z,53.70
2019-03-04T05:09:39.038Z,53.50
2019-03-04T05:12:09.503Z,53.50
2019-03-04T05:14:39.991Z,53.70
2019-03-04T05:17:10.250Z,53.70
2019-03-04T05:19:40.332Z,53.90
2019-03-04T05:22:10.404Z,54.30
2019-03-04T05:24:40.195Z,54.70
2019-03-04T05:27:10.175Z,54.60
2019-03-04T05:29:40.499Z,54.70
2019-03-04T05:32:10.426Z,54.70
2019-03-04T05:34:40.759Z,54.50
2019-03-04T05:37:10.838Z,54.70
2019-03-04T05:39:41.175Z,54.80
2019-03-04T05:42:11.509Z,54.10
2019-03-04T05:44:41.194Z,54.20
2019-03-04T05:47:11.493Z,53.70
2019-03-04T05:49:41.879Z,53.70
2019-03-04T05:52:11.881Z,53.50
2019-03-04T05:54:42.554Z,53.80
2019-03-04T05:57:13.264Z,54.30
2019-03-04T05:59:42.861Z,54.60
2019-03-04T06:02:13.354Z,54.70
2019-03-04T06:04:45.641Z,55.20
2019-03-04T06:07:32.511Z,53.20
2019-03-04T06:10:02.958Z,53.00
2019-03-04T06:12:33.021Z,53.00
2019-03-04T06:15:03.452Z,53.80
2019-03-04T06:17:33.539Z,54.10
2019-03-04T06:20:03.183Z,54.40
2019-03-04T06:22:33.595Z,54.60
2019-03-04T06:25:03.308Z,54.90
2019-03-04T06:27:33.649Z,55.30
2019-03-04T06:30:03.648Z,54.30
2019-03-04T06:32:33.668Z,54.40
2019-03-04T06:35:04.066Z,53.70
2019-03-04T06:37:34.307Z,53.90
2019-03-04T06:40:04.498Z,54.00
2019-03-04T06:42:34.133Z,53.30
2019-03-04T06:45:04.154Z,53.90
2019-03-04T06:47:34.546Z,54.50
2019-03-04T06:50:04.888Z,55.30
2019-03-04T06:53:12.696Z,56.00
2019-03-04T06:56:30.754Z,56.90
2019-03-04T06:59:08.458Z,58.60
2019-03-04T07:01:42.758Z,58.80
2019-03-04T07:04:36.878Z,59.30
2019-03-04T07:07:06.867Z,58.30
2019-03-04T07:09:36.987Z,56.30
2019-03-04T07:12:07.530Z,55.90
2019-03-04T07:14:37.656Z,54.00
2019-03-04T07:17:07.671Z,51.10
2019-03-04T07:19:39.606Z,50.90
2019-03-04T07:22:11.082Z,50.70
2019-03-04T07:24:41.395Z,51.10
2019-03-04T07:27:12.219Z,49.90
2019-03-04T07:29:42.139Z,50.60
2019-03-04T07:32:12.564Z,49.80
2019-03-04T07:34:43.333Z,49.60
2019-03-04T07:37:12.628Z,50.00
2019-03-04T07:39:43.148Z,50.30
2019-03-04T07:42:13.661Z,50.30
2019-03-04T07:44:42.987Z,50.50
2019-03-04T07:47:13.576Z,50.80
2019-03-04T07:49:47.198Z,50.90
2019-03-04T07:52:17.106Z,51.10
2019-03-04T07:54:50.887Z,51.30
2019-03-04T07:57:21.524Z,51.30
2019-03-04T07:59:51.542Z,50.90
2019-03-04T08:02:48.851Z,50.60
2019-03-04T08:05:18.816Z,50.40
2019-03-04T08:08:12.709Z,50.70
2019-03-04T08:11:24.503Z,51.40
2019-03-04T08:14:41.545Z,52.50
2019-03-04T08:17:30.561Z,53.60
2019-03-04T08:20:00.713Z,54.30
2019-03-04T08:22:52.974Z,54.30
2019-03-04T08:28:35.991Z,55.70
2019-03-04T08:31:05.766Z,55.70
2019-03-04T08:33:36.235Z,56.40
2019-03-04T08:36:12.700Z,57.20
2019-03-04T08:38:44.182Z,57.70
2019-03-04T08:41:25.667Z,58.30
2019-03-04T08:43:56.926Z,58.90
2019-03-04T08:46:27.011Z,59.90
2019-03-04T08:48:57.834Z,62.90
2019-03-04T08:51:27.557Z,66.40
2019-03-04T08:53:57.265Z,69.90
2019-03-04T08:56:27.319Z,74.10
2019-03-04T08:58:57.402Z,77.90
2019-03-04T09:01:27.720Z,80.30
2019-03-04T09:03:57.981Z,82.80
2019-03-04T09:06:28.272Z,83.40
2019-03-04T09:08:58.065Z,84.60
2019-03-04T09:11:28.101Z,85.00
2019-03-04T09:13:58.834Z,86.90
2019-03-04T09:16:28.947Z,87.00
2019-03-04T09:18:58.906Z,87.90
2019-03-04T09:21:28.994Z,89.10
2019-03-04T09:23:59.193Z,90.50
2019-03-04T09:26:29.434Z,91.70
2019-03-04T09:28:59.845Z,92.30
2019-03-04T09:31:59.817Z,93.60
2019-03-04T09:34:29.546Z,93.30
2019-03-04T09:37:00.264Z,93.40
2019-03-04T09:39:30.374Z,92.30
2019-03-04T09:42:24.679Z,91.40
2019-03-04T09:52:23.785Z,84.90
2019-03-04T09:54:54.070Z,83.10
2019-03-04T09:57:26.307Z,80.40
2019-03-04T10:02:46.529Z,79.20
2019-03-04T10:06:27.725Z,76.80
2019-03-04T10:10:03.958Z,76.40
2019-03-04T10:13:14.867Z,76.50
2019-03-04T10:16:02.161Z,72.40
2019-03-04T10:19:00.706Z,71.50
2019-03-04T10:21:54.798Z,68.70
2019-03-04T10:24:40.311Z,68.70
2019-03-04T10:27:47.101Z,68.40
2019-03-04T10:30:59.550Z,68.80
2019-03-04T10:34:09.403Z,68.20
2019-03-04T10:37:09.529Z,68.30
2019-03-04T10:40:25.615Z,69.00
2019-03-04T10:43:38.290Z,69.20
2019-03-04T10:46:32.454Z,69.80
2019-03-04T10:49:02.866Z,69.20
2019-03-04T10:51:33.587Z,70.10
2019-03-04T10:54:03.588Z,69.60
2019-03-04T10:56:33.957Z,69.10
2019-03-04T10:59:03.940Z,69.30
2019-03-04T11:01:34.685Z,68.80
2019-03-04T11:04:05.477Z,69.00
2019-03-04T11:06:35.519Z,68.40
2019-03-04T11:09:07.573Z,69.20
2019-03-04T11:11:38.004Z,68.70
2019-03-04T11:14:07.673Z,68.60
2019-03-04T11:16:37.688Z,68.90
2019-03-04T11:19:08.158Z,68.50
2019-03-04T11:21:38.427Z,68.80
2019-03-04T11:24:09.328Z,68.20
2019-03-04T11:26:39.762Z,68.00
2019-03-04T11:29:13.337Z,67.60
2019-03-04T11:31:43.245Z,68.30
2019-03-04T11:34:13.569Z,67.70
2019-03-04T11:36:43.623Z,67.30
2019-03-04T11:39:43.122Z,65.90
2019-03-04T11:42:13.483Z,64.10
2019-03-04T11:44:43.499Z,63.90
2019-03-04T11:47:13.493Z,64.60
2019-03-04T11:49:43.969Z,64.70
2019-03-04T11:52:13.631Z,64.40
2019-03-04T11:54:43.635Z,64.40
2019-03-04T11:57:14.345Z,64.50
2019-03-04T11:59:44.731Z,64.80
2019-03-04T12:02:19.312Z,65.00
2019-03-04T12:04:49.689Z,65.60
2019-03-04T12:07:20.464Z,66.40
2019-03-04T12:09:50.587Z,66.50
2019-03-04T12:12:20.609Z,66.80
2019-03-04T12:14:51.281Z,67.20
2019-03-04T12:17:21.269Z,67.20
2019-03-04T12:19:51.792Z,67.10
2019-03-04T12:22:21.694Z,66.80
2019-03-04T12:24:51.718Z,65.80
2019-03-04T12:27:22.345Z,65.70
2019-03-04T12:29:52.483Z,66.00
2019-03-04T12:32:25.798Z,64.80
2019-03-04T12:34:55.797Z,64.50
2019-03-04T12:37:25.461Z,63.60
2019-03-04T12:39:54.814Z,63.40
2019-03-04T12:42:24.822Z,63.40
2019-03-04T12:44:55.151Z,63.20
2019-03-04T12:47:25.146Z,63.00
2019-03-04T12:49:55.512Z,62.90
2019-03-04T12:52:25.777Z,62.50
2019-03-04T12:54:56.464Z,62.50
2019-03-04T12:57:26.462Z,62.20
2019-03-04T12:59:56.752Z,61.30
2019-03-04T13:02:26.825Z,60.40
2019-03-04T13:04:57.471Z,59.70
2019-03-04T13:07:27.916Z,59.30
2019-03-04T13:09:57.974Z,59.00
2019-03-04T13:12:28.256Z,58.90
2019-03-04T13:14:57.917Z,58.50
2019-03-04T13:17:28.022Z,58.00
2019-03-04T13:19:58.016Z,57.80
2019-03-04T13:22:28.667Z,57.40
2019-03-04T13:24:58.732Z,57.20
2019-03-04T13:27:28.395Z,57.30
2019-03-04T13:29:58.998Z,56.90
2019-03-04T13:32:28.723Z,56.80
2019-03-04T13:34:58.463Z,57.20
2019-03-04T13:37:29.239Z,57.60
2019-03-04T13:39:59.942Z,57.30
2019-03-04T13:42:30.045Z,56.40
2019-03-04T13:45:00.097Z,56.10
2019-03-04T13:47:30.411Z,55.80
2019-03-04T13:50:01.219Z,56.20
2019-03-04T13:52:31.602Z,55.40
2019-03-04T13:55:01.936Z,54.60
2019-03-04T13:57:32.353Z,54.70
2019-03-04T14:00:02.135Z,54.60
2019-03-04T14:02:32.670Z,54.10
2019-03-04T14:05:02.830Z,53.20
2019-03-04T14:07:33.180Z,53.80
2019-03-04T14:10:03.983Z,53.80
2019-03-04T14:12:34.393Z,53.80
2019-03-04T14:15:05.232Z,53.80
2019-03-04T14:17:35.267Z,53.70
2019-03-04T14:20:06.248Z,53.70
2019-03-04T14:22:40.244Z,53.30
2019-03-04T14:25:09.481Z,53.00
2019-03-04T14:27:39.989Z,53.30
2019-03-04T14:30:13.608Z,53.00
2019-03-04T14:32:43.988Z,51.90
2019-03-04T14:35:14.200Z,52.40
2019-03-04T14:37:43.850Z,52.70
2019-03-04T14:40:15.055Z,53.20
2019-03-04T14:42:45.710Z,53.00
2019-03-04T14:45:17.924Z,51.80
2019-03-04T14:47:49.640Z,52.20
2019-03-04T14:51:24.936Z,52.70
2019-03-04T15:00:56.846Z,52.00
2019-03-04T15:10:52.423Z,51.40
2019-03-04T15:13:27.944Z,52.20
2019-03-04T15:16:05.661Z,53.30
2019-03-04T15:18:36.245Z,54.40
2019-03-04T15:21:13.250Z,54.30
2019-03-04T15:23:43.904Z,55.10
2019-03-04T15:26:13.532Z,55.60
2019-03-04T15:28:43.511Z,56.60
2019-03-04T15:31:14.141Z,56.50
2019-03-04T15:33:46.036Z,57.20
2019-03-04T15:36:16.668Z,58.00
2019-03-04T15:38:47.371Z,59.00
2019-03-04T15:41:24.241Z,58.90
2019-03-04T15:44:00.953Z,58.90
2019-03-04T15:46:31.395Z,58.90
2019-03-04T15:49:01.556Z,59.00
2019-03-04T15:51:34.701Z,59.10
2019-03-04T15:54:05.487Z,59.30
2019-03-04T15:56:35.558Z,58.60
2019-03-04T15:59:05.982Z,56.60
2019-03-04T16:01:38.799Z,55.60
2019-03-04T16:04:15.146Z,55.00
2019-03-04T16:06:53.320Z,54.10
2019-03-04T16:09:23.444Z,53.80
2019-03-04T16:11:59.467Z,53.60
2019-03-04T16:14:29.731Z,54.20
2019-03-04T16:16:59.779Z,54.70
2019-03-04T16:19:30.154Z,55.20
2019-03-04T16:22:00.182Z,56.00
2019-03-04T16:24:30.232Z,55.90
2019-03-04T16:27:08.062Z,60.50
2019-03-04T16:29:38.539Z,67.60
2019-03-04T16:32:09.218Z,85.90
2019-03-04T16:34:39.721Z,93.30
2019-03-04T16:37:10.346Z,96.40
2019-03-04T16:39:40.439Z,97.90
2019-03-04T16:42:10.778Z,98.40
2019-03-04T16:44:41.186Z,99.70
2019-03-04T16:47:11.646Z,99.90
2019-03-04T16:49:41.774Z,99.90
2019-03-04T16:52:11.877Z,99.90
2019-03-04T16:54:41.978Z,99.90
2019-03-04T16:57:13.442Z,99.90
2019-03-04T16:59:43.961Z,99.70
2019-03-04T17:02:14.418Z,99.90
2019-03-04T17:04:44.127Z,99.90
2019-03-04T17:07:14.640Z,99.90
2019-03-04T17:09:45.275Z,99.90
2019-03-04T17:12:15.507Z,99.90
2019-03-04T17:14:46.383Z,99.90
2019-03-04T17:17:17.150Z,99.90
2019-03-04T17:19:47.570Z,99.90
2019-03-04T17:22:18.041Z,99.90
2019-03-04T17:24:48.111Z,99.70
2019-03-04T17:27:18.294Z,99.70
2019-03-04T17:29:47.973Z,99.20
2019-03-04T17:32:18.460Z,99.30
2019-03-04T17:34:48.499Z,99.50
2019-03-04T17:37:23.414Z,99.70
2019-03-04T17:39:53.804Z,99.80
2019-03-04T17:42:24.815Z,99.90
2019-03-04T17:44:54.550Z,99.80
2019-03-04T17:47:24.675Z,99.90
2019-03-04T17:49:55.268Z,99.40
2019-03-04T17:52:25.361Z,99.40
2019-03-04T17:54:56.095Z,99.80
2019-03-04T17:57:26.547Z,99.60
2019-03-04T17:59:56.278Z,99.90
2019-03-04T18:02:27.014Z,99.70
2019-03-04T18:04:57.415Z,99.70
2019-03-04T18:07:28.032Z,99.50
2019-03-04T18:09:58.990Z,99.50
2019-03-04T18:12:29.488Z,99.20
2019-03-04T18:14:59.946Z,99.00
2019-03-04T18:17:31.289Z,98.90
2019-03-04T18:20:02.042Z,98.40
2019-03-04T18:22:32.154Z,98.50
2019-03-04T18:25:01.947Z,98.50
2019-03-04T18:27:42.854Z,98.50
2019-03-04T18:30:42.443Z,98.90
2019-03-04T18:33:40.487Z,99.40
2019-03-04T18:36:57.572Z,99.50
2019-03-04T18:40:21.101Z,99.30
2019-03-04T18:43:49.531Z,99.60
2019-03-04T18:46:58.716Z,99.80
2019-03-04T18:49:29.577Z,99.50
2019-03-04T18:51:59.461Z,99.00
2019-03-04T18:54:29.932Z,98.90
2019-03-04T18:57:00.460Z,99.10
2019-03-04T18:59:30.193Z,99.10
2019-03-04T19:02:00.523Z,99.40
2019-03-04T19:04:31.139Z,99.30
2019-03-04T19:07:01.371Z,99.30
2019-03-04T19:09:53.799Z,99.30
2019-03-04T19:12:24.540Z,99.60
2019-03-04T19:14:55.116Z,99.30
2019-03-04T19:17:35.275Z,99.70
2019-03-04T19:20:06.359Z,99.70
2019-03-04T19:22:48.585Z,99.90
2019-03-04T19:25:43.943Z,99.90
2019-03-04T19:28:16.997Z,99.90
2019-03-04T19:30:50.278Z,99.90
2019-03-04T19:33:20.483Z,99.90
2019-03-04T19:36:21.575Z,99.90
2019-03-04T19:38:52.059Z,99.90
2019-03-04T19:41:22.500Z,99.90
2019-03-04T19:43:52.952Z,99.90
2019-03-04T19:46:23.906Z,99.90
2019-03-04T19:48:54.791Z,99.90
2019-03-04T19:52:14.043Z,99.90
2019-03-04T19:58:32.392Z,99.90
2019-03-04T20:02:28.840Z,99.90
2019-03-04T20:04:55.338Z,99.90
2019-03-04T20:08:08.239Z,99.90
2019-03-04T20:13:43.771Z,99.90
2019-03-04T20:16:33.099Z,99.90
2019-03-04T20:19:46.324Z,99.90
2019-03-04T20:22:16.637Z,99.90
2019-03-04T20:24:47.381Z,99.90
2019-03-04T20:27:17.861Z,99.90
2019-03-04T20:29:48.503Z,99.90
2019-03-04T20:32:19.003Z,99.90
2019-03-04T20:34:49.039Z,99.90
2019-03-04T20:37:26.505Z,99.90
2019-03-04T20:40:31.773Z,99.90
2019-03-04T20:43:26.468Z,99.90
2019-03-04T20:45:56.297Z,99.90
2019-03-04T20:48:26.067Z,99.90
2019-03-04T20:50:56.579Z,99.90
2019-03-04T20:56:42.702Z,99.90
2019-03-04T20:59:13.180Z,99.90
2019-03-04T21:01:43.588Z,99.90
2019-03-04T21:04:14.103Z,99.90
2019-03-04T21:06:44.243Z,99.90
2019-03-04T21:09:16.366Z,99.90
2019-03-04T21:11:45.711Z,99.90
2019-03-04T21:14:15.413Z,99.90
2019-03-04T21:16:46.229Z,99.90
2019-03-04T21:19:16.768Z,99.90
2019-03-04T21:21:47.086Z,99.90
2019-03-04T21:24:17.590Z,99.90
2019-03-04T21:26:49.716Z,99.90
2019-03-04T21:30:06.842Z,99.90
2019-03-04T21:33:16.409Z,99.90
2019-03-04T21:36:20.724Z,99.90
2019-03-04T21:38:51.209Z,99.50
2019-03-04T21:41:49.116Z,99.30
2019-03-04T21:45:00.374Z,99.20
2019-03-04T21:47:34.333Z,99.00
2019-03-04T21:50:05.538Z,98.80
2019-03-04T21:52:56.603Z,98.40
2019-03-04T21:55:40.350Z,97.80
2019-03-04T21:58:10.432Z,97.90
2019-03-04T22:00:42.144Z,97.90
2019-03-04T22:03:15.905Z,97.90
2019-03-04T22:05:50.282Z,98.10
2019-03-04T22:08:18.317Z,97.80
2019-03-04T22:10:47.927Z,97.40
2019-03-04T22:13:17.892Z,97.30
2019-03-04T22:15:47.957Z,97.10
2019-03-04T22:18:19.785Z,97.30
2019-03-04T22:20:50.171Z,97.00
2019-03-04T22:23:19.558Z,96.80
2019-03-04T22:25:49.152Z,96.70
2019-03-04T22:28:19.878Z,96.60
2019-03-04T22:30:50.327Z,96.30
2019-03-04T22:33:20.650Z,96.10
2019-03-04T22:35:51.158Z,96.20
2019-03-04T22:38:20.838Z,95.90
2019-03-04T22:40:51.627Z,95.70
2019-03-04T22:43:21.974Z,96.10
2019-03-04T22:45:52.129Z,96.10
2019-03-04T22:48:22.180Z,95.60
2019-03-04T22:50:52.542Z,95.70
2019-03-04T22:53:23.416Z,96.00
2019-03-04T22:55:54.076Z,95.80
2019-03-04T22:58:28.538Z,95.50
2019-03-04T23:01:34.512Z,95.50
2019-03-04T23:04:32.722Z,96.00
2019-03-04T23:07:05.339Z,95.90
2019-03-04T23:09:39.046Z,95.30
2019-03-04T23:12:17.004Z,95.50
2019-03-04T23:14:47.609Z,95.50
2019-03-04T23:17:17.449Z,95.10
2019-03-04T23:19:48.167Z,95.40
2019-03-04T23:22:18.198Z,95.20
2019-03-04T23:24:48.128Z,95.30
2019-03-04T23:27:17.882Z,95.00
2019-03-04T23:29:47.843Z,94.80
2019-03-04T23:32:17.598Z,94.50
2019-03-04T23:34:47.868Z,94.70
2019-03-04T23:37:17.447Z,94.70
2019-03-04T23:39:47.903Z,94.80
2019-03-04T23:42:17.912Z,94.10
2019-03-04T23:44:48.243Z,94.10
2019-03-04T23:47:18.870Z,94.30
2019-03-04T23:49:48.910Z,94.60
2019-03-04T23:52:18.911Z,94.60
2019-03-04T23:54:49.586Z,94.50
2019-03-04T23:57:20.260Z,94.40
2019-03-04T23:59:50.604Z,94.10
